sensor_id;sensor_type;location;lat;lon;timestamp;pressure;altitude;pressure_sealevel;temperature
31528;BMP280;10206;48.012;10.030;2023-09-19T00:01:40;94595.16;;;18.70
31528;BMP280;10206;48.012;10.030;2023-09-19T00:04:08;94593.78;;;18.86
31528;BMP280;10206;48.012;10.030;2023-09-19T00:06:36;94598.63;;;18.86
31528;BMP280;10206;48.012;10.030;2023-09-19T00:09:03;94583.59;;;18.91
31528;BMP280;10206;48.012;10.030;2023-09-19T00:11:29;94593.31;;;18.92
31528;BMP280;10206;48.012;10.030;2023-09-19T00:13:55;94590.97;;;19.02
31528;BMP280;10206;48.012;10.030;2023-09-19T00:16:25;94590.88;;;19.00
31528;BMP280;10206;48.012;10.030;2023-09-19T00:18:52;94589.19;;;18.93
31528;BMP280;10206;48.012;10.030;2023-09-19T00:21:18;94589.06;;;18.89
31528;BMP280;10206;48.012;10.030;2023-09-19T00:23:48;94596.41;;;19.00
31528;BMP280;10206;48.012;10.030;2023-09-19T00:26:15;94592.19;;;18.81
31528;BMP280;10206;48.012;10.030;2023-09-19T00:28:41;94591.34;;;18.94
31528;BMP280;10206;48.012;10.030;2023-09-19T00:31:08;94590.56;;;19.09
31528;BMP280;10206;48.012;10.030;2023-09-19T00:33:35;94594.75;;;19.10
31528;BMP280;10206;48.012;10.030;2023-09-19T00:36:02;94593.72;;;19.02
31528;BMP280;10206;48.012;10.030;2023-09-19T00:38:31;94587.31;;;18.97
31528;BMP280;10206;48.012;10.030;2023-09-19T00:40:58;94587.78;;;18.92
31528;BMP280;10206;48.012;10.030;2023-09-19T00:43:25;94592.06;;;18.95
31528;BMP280;10206;48.012;10.030;2023-09-19T00:45:55;94585.34;;;19.00
31528;BMP280;10206;48.012;10.030;2023-09-19T00:48:22;94590.56;;;18.92
31528;BMP280;10206;48.012;10.030;2023-09-19T00:50:49;94590.22;;;18.84
31528;BMP280;10206;48.012;10.030;2023-09-19T00:53:20;94590.59;;;18.76
31528;BMP280;10206;48.012;10.030;2023-09-19T00:55:47;94593.03;;;18.68
31528;BMP280;10206;48.012;10.030;2023-09-19T00:58:14;94589.50;;;18.50
31528;BMP280;10206;48.012;10.030;2023-09-19T01:00:41;94590.47;;;18.57
31528;BMP280;10206;48.012;10.030;2023-09-19T01:03:10;94594.06;;;18.44
31528;BMP280;10206;48.012;10.030;2023-09-19T01:05:39;94594.84;;;18.46
31528;BMP280;10206;48.012;10.030;2023-09-19T01:08:06;94600.72;;;18.54
31528;BMP280;10206;48.012;10.030;2023-09-19T01:10:33;94597.94;;;18.54
31528;BMP280;10206;48.012;10.030;2023-09-19T01:13:31;94608.91;;;18.68
31528;BMP280;10206;48.012;10.030;2023-09-19T01:16:41;94607.66;;;18.55
31528;BMP280;10206;48.012;10.030;2023-09-19T01:19:12;94609.09;;;18.56
31528;BMP280;10206;48.012;10.030;2023-09-19T01:22:10;94611.22;;;18.58
31528;BMP280;10206;48.012;10.030;2023-09-19T01:24:55;94613.56;;;18.63
31528;BMP280;10206;48.012;10.030;2023-09-19T01:30:42;94615.53;;;18.29
31528;BMP280;10206;48.012;10.030;2023-09-19T01:33:10;94618.47;;;18.18
31528;BMP280;10206;48.012;10.030;2023-09-19T01:35:40;94619.47;;;18.24
31528;BMP280;10206;48.012;10.030;2023-09-19T01:38:07;94614.81;;;18.29
31528;BMP280;10206;48.012;10.030;2023-09-19T01:40:45;94612.94;;;18.33
31528;BMP280;10206;48.012;10.030;2023-09-19T01:43:23;94614.00;;;18.42
31528;BMP280;10206;48.012;10.030;2023-09-19T01:46:09;94611.78;;;18.38
31528;BMP280;10206;48.012;10.030;2023-09-19T01:48:59;94612.28;;;18.51
31528;BMP280;10206;48.012;10.030;2023-09-19T01:51:51;94604.19;;;18.55
31528;BMP280;10206;48.012;10.030;2023-09-19T01:54:26;94601.88;;;18.49
31528;BMP280;10206;48.012;10.030;2023-09-19T01:57:22;94608.19;;;18.52
31528;BMP280;10206;48.012;10.030;2023-09-19T01:59:54;94607.81;;;18.59
31528;BMP280;10206;48.012;10.030;2023-09-19T02:02:23;94609.41;;;18.64
31528;BMP280;10206;48.012;10.030;2023-09-19T02:04:50;94618.50;;;18.67
31528;BMP280;10206;48.012;10.030;2023-09-19T02:07:17;94629.13;;;18.72
31528;BMP280;10206;48.012;10.030;2023-09-19T02:09:43;94626.25;;;18.86
31528;BMP280;10206;48.012;10.030;2023-09-19T02:12:10;94628.41;;;18.72
31528;BMP280;10206;48.012;10.030;2023-09-19T02:14:36;94632.56;;;18.88
31528;BMP280;10206;48.012;10.030;2023-09-19T02:17:03;94635.25;;;18.86
31528;BMP280;10206;48.012;10.030;2023-09-19T02:19:33;94633.41;;;18.75
31528;BMP280;10206;48.012;10.030;2023-09-19T02:22:00;94631.28;;;18.91
31528;BMP280;10206;48.012;10.030;2023-09-19T02:24:29;94642.13;;;18.85
31528;BMP280;10206;48.012;10.030;2023-09-19T02:26:55;94640.03;;;19.01
31528;BMP280;10206;48.012;10.030;2023-09-19T02:29:21;94642.47;;;18.78
31528;BMP280;10206;48.012;10.030;2023-09-19T02:31:48;94642.84;;;18.86
31528;BMP280;10206;48.012;10.030;2023-09-19T02:34:14;94642.56;;;18.64
31528;BMP280;10206;48.012;10.030;2023-09-19T02:36:42;94650.06;;;18.77
31528;BMP280;10206;48.012;10.030;2023-09-19T02:39:10;94650.75;;;18.78
31528;BMP280;10206;48.012;10.030;2023-09-19T02:41:37;94652.03;;;18.75
31528;BMP280;10206;48.012;10.030;2023-09-19T02:44:03;94643.56;;;18.55
31528;BMP280;10206;48.012;10.030;2023-09-19T02:46:34;94644.00;;;18.65
31528;BMP280;10206;48.012;10.030;2023-09-19T02:49:02;94649.03;;;18.53
31528;BMP280;10206;48.012;10.030;2023-09-19T02:51:32;94653.47;;;18.45
31528;BMP280;10206;48.012;10.030;2023-09-19T02:54:00;94658.28;;;18.60
31528;BMP280;10206;48.012;10.030;2023-09-19T02:56:26;94660.91;;;18.73
31528;BMP280;10206;48.012;10.030;2023-09-19T02:58:52;94661.31;;;18.66
31528;BMP280;10206;48.012;10.030;2023-09-19T03:01:19;94660.63;;;18.83
31528;BMP280;10206;48.012;10.030;2023-09-19T03:03:45;94660.41;;;18.77
31528;BMP280;10206;48.012;10.030;2023-09-19T03:06:11;94668.59;;;18.75
31528;BMP280;10206;48.012;10.030;2023-09-19T03:08:39;94667.16;;;18.74
31528;BMP280;10206;48.012;10.030;2023-09-19T03:11:25;94663.16;;;18.77
31528;BMP280;10206;48.012;10.030;2023-09-19T03:13:55;94667.00;;;18.85
31528;BMP280;10206;48.012;10.030;2023-09-19T03:16:21;94674.31;;;19.12
31528;BMP280;10206;48.012;10.030;2023-09-19T03:18:48;94677.97;;;19.16
31528;BMP280;10206;48.012;10.030;2023-09-19T03:21:17;94680.75;;;19.16
31528;BMP280;10206;48.012;10.030;2023-09-19T03:23:45;94687.81;;;19.04
31528;BMP280;10206;48.012;10.030;2023-09-19T03:26:12;94683.13;;;19.24
31528;BMP280;10206;48.012;10.030;2023-09-19T03:28:38;94683.63;;;19.03
31528;BMP280;10206;48.012;10.030;2023-09-19T03:31:06;94681.63;;;19.21
31528;BMP280;10206;48.012;10.030;2023-09-19T03:33:33;94682.13;;;19.00
31528;BMP280;10206;48.012;10.030;2023-09-19T03:36:01;94679.00;;;18.92
31528;BMP280;10206;48.012;10.030;2023-09-19T03:38:30;94683.16;;;19.08
31528;BMP280;10206;48.012;10.030;2023-09-19T03:40:57;94681.13;;;19.09
31528;BMP280;10206;48.012;10.030;2023-09-19T03:43:23;94682.69;;;19.14
31528;BMP280;10206;48.012;10.030;2023-09-19T03:45:49;94687.09;;;19.03
31528;BMP280;10206;48.012;10.030;2023-09-19T03:48:16;94684.44;;;18.90
31528;BMP280;10206;48.012;10.030;2023-09-19T03:50:43;94680.84;;;19.03
31528;BMP280;10206;48.012;10.030;2023-09-19T03:53:12;94678.13;;;18.87
31528;BMP280;10206;48.012;10.030;2023-09-19T03:55:38;94678.25;;;19.07
31528;BMP280;10206;48.012;10.030;2023-09-19T03:58:07;94678.38;;;18.93
31528;BMP280;10206;48.012;10.030;2023-09-19T04:00:33;94677.34;;;19.18
31528;BMP280;10206;48.012;10.030;2023-09-19T04:03:00;94678.69;;;19.17
31528;BMP280;10206;48.012;10.030;2023-09-19T04:05:31;94674.22;;;19.10
31528;BMP280;10206;48.012;10.030;2023-09-19T04:07:58;94672.28;;;19.12
31528;BMP280;10206;48.012;10.030;2023-09-19T04:10:24;94673.50;;;19.09
31528;BMP280;10206;48.012;10.030;2023-09-19T04:12:54;94678.53;;;19.13
31528;BMP280;10206;48.012;10.030;2023-09-19T04:15:21;94670.28;;;19.15
31528;BMP280;10206;48.012;10.030;2023-09-19T04:17:49;94668.88;;;19.14
31528;BMP280;10206;48.012;10.030;2023-09-19T04:20:16;94672.22;;;19.28
31528;BMP280;10206;48.012;10.030;2023-09-19T04:22:43;94675.88;;;18.99
31528;BMP280;10206;48.012;10.030;2023-09-19T04:25:09;94672.75;;;19.24
31528;BMP280;10206;48.012;10.030;2023-09-19T04:27:36;94686.56;;;19.07
31528;BMP280;10206;48.012;10.030;2023-09-19T04:30:02;94687.22;;;19.23
31528;BMP280;10206;48.012;10.030;2023-09-19T04:32:30;94685.00;;;19.19
31528;BMP280;10206;48.012;10.030;2023-09-19T04:34:58;94693.47;;;19.23
31528;BMP280;10206;48.012;10.030;2023-09-19T04:37:26;94694.09;;;18.89
31528;BMP280;10206;48.012;10.030;2023-09-19T04:39:52;94692.31;;;18.95
31528;BMP280;10206;48.012;10.030;2023-09-19T04:42:18;94694.84;;;19.07
31528;BMP280;10206;48.012;10.030;2023-09-19T04:44:45;94695.28;;;19.17
31528;BMP280;10206;48.012;10.030;2023-09-19T04:47:11;94698.94;;;19.06
31528;BMP280;10206;48.012;10.030;2023-09-19T04:49:38;94700.38;;;19.07
31528;BMP280;10206;48.012;10.030;2023-09-19T04:52:06;94696.19;;;19.06
31528;BMP280;10206;48.012;10.030;2023-09-19T04:54:32;94691.75;;;18.99
31528;BMP280;10206;48.012;10.030;2023-09-19T04:57:00;94699.59;;;19.04
31528;BMP280;10206;48.012;10.030;2023-09-19T04:59:29;94703.53;;;18.84
31528;BMP280;10206;48.012;10.030;2023-09-19T05:01:55;94715.81;;;19.12
31528;BMP280;10206;48.012;10.030;2023-09-19T05:04:21;94711.50;;;18.76
31528;BMP280;10206;48.012;10.030;2023-09-19T05:06:48;94719.06;;;18.91
31528;BMP280;10206;48.012;10.030;2023-09-19T05:09:14;94718.56;;;18.63
31528;BMP280;10206;48.012;10.030;2023-09-19T05:11:41;94725.84;;;18.88
31528;BMP280;10206;48.012;10.030;2023-09-19T05:14:07;94728.91;;;18.96
31528;BMP280;10206;48.012;10.030;2023-09-19T05:16:33;94721.25;;;19.10
31528;BMP280;10206;48.012;10.030;2023-09-19T05:19:00;94725.00;;;19.01
31528;BMP280;10206;48.012;10.030;2023-09-19T05:21:27;94714.78;;;18.88
31528;BMP280;10206;48.012;10.030;2023-09-19T05:23:56;94718.66;;;19.14
31528;BMP280;10206;48.012;10.030;2023-09-19T05:26:23;94725.88;;;19.05
31528;BMP280;10206;48.012;10.030;2023-09-19T05:28:49;94729.91;;;19.02
31528;BMP280;10206;48.012;10.030;2023-09-19T05:31:15;94732.78;;;18.89
31528;BMP280;10206;48.012;10.030;2023-09-19T05:33:42;94736.59;;;19.13
31528;BMP280;10206;48.012;10.030;2023-09-19T05:36:09;94739.78;;;19.23
31528;BMP280;10206;48.012;10.030;2023-09-19T05:38:37;94740.97;;;19.35
31528;BMP280;10206;48.012;10.030;2023-09-19T05:41:06;94743.88;;;19.22
31528;BMP280;10206;48.012;10.030;2023-09-19T05:43:34;94757.34;;;19.29
31528;BMP280;10206;48.012;10.030;2023-09-19T05:46:03;94747.66;;;19.46
31528;BMP280;10206;48.012;10.030;2023-09-19T05:48:29;94747.97;;;19.54
31528;BMP280;10206;48.012;10.030;2023-09-19T05:50:56;94753.19;;;19.46
31528;BMP280;10206;48.012;10.030;2023-09-19T05:53:22;94756.72;;;19.31
31528;BMP280;10206;48.012;10.030;2023-09-19T05:55:49;94753.13;;;19.44
31528;BMP280;10206;48.012;10.030;2023-09-19T05:58:15;94750.75;;;19.54
31528;BMP280;10206;48.012;10.030;2023-09-19T06:00:43;94757.81;;;19.57
31528;BMP280;10206;48.012;10.030;2023-09-19T06:03:10;94761.88;;;19.38
31528;BMP280;10206;48.012;10.030;2023-09-19T06:05:39;94758.75;;;19.64
31528;BMP280;10206;48.012;10.030;2023-09-19T06:08:07;94762.25;;;19.64
31528;BMP280;10206;48.012;10.030;2023-09-19T06:10:34;94763.34;;;19.57
31528;BMP280;10206;48.012;10.030;2023-09-19T06:13:04;94763.09;;;19.51
31528;BMP280;10206;48.012;10.030;2023-09-19T06:15:30;94770.78;;;19.70
31528;BMP280;10206;48.012;10.030;2023-09-19T06:17:59;94766.44;;;19.65
31528;BMP280;10206;48.012;10.030;2023-09-19T06:20:26;94774.75;;;19.65
31528;BMP280;10206;48.012;10.030;2023-09-19T06:22:52;94774.50;;;19.77
31528;BMP280;10206;48.012;10.030;2023-09-19T06:25:19;94773.47;;;19.68
31528;BMP280;10206;48.012;10.030;2023-09-19T06:27:52;94772.38;;;19.75
31528;BMP280;10206;48.012;10.030;2023-09-19T06:30:20;94776.16;;;19.84
31528;BMP280;10206;48.012;10.030;2023-09-19T06:32:47;94780.25;;;19.98
31528;BMP280;10206;48.012;10.030;2023-09-19T06:35:15;94774.97;;;19.89
31528;BMP280;10206;48.012;10.030;2023-09-19T06:37:42;94774.06;;;20.17
31528;BMP280;10206;48.012;10.030;2023-09-19T06:40:10;94774.75;;;20.73
31528;BMP280;10206;48.012;10.030;2023-09-19T06:42:44;94781.75;;;20.93
31528;BMP280;10206;48.012;10.030;2023-09-19T06:45:14;94770.69;;;21.56
31528;BMP280;10206;48.012;10.030;2023-09-19T06:47:48;94766.91;;;21.67
31528;BMP280;10206;48.012;10.030;2023-09-19T06:50:18;94770.97;;;21.86
31528;BMP280;10206;48.012;10.030;2023-09-19T06:52:54;94773.94;;;21.92
31528;BMP280;10206;48.012;10.030;2023-09-19T06:55:21;94784.25;;;22.11
31528;BMP280;10206;48.012;10.030;2023-09-19T06:57:50;94781.06;;;21.97
31528;BMP280;10206;48.012;10.030;2023-09-19T07:00:17;94781.81;;;22.44
31528;BMP280;10206;48.012;10.030;2023-09-19T07:03:05;94793.38;;;22.58
31528;BMP280;10206;48.012;10.030;2023-09-19T07:05:36;94786.66;;;22.20
31528;BMP280;10206;48.012;10.030;2023-09-19T07:08:04;94796.84;;;22.14
31528;BMP280;10206;48.012;10.030;2023-09-19T07:10:32;94791.91;;;21.89
31528;BMP280;10206;48.012;10.030;2023-09-19T07:13:07;94803.25;;;21.54
31528;BMP280;10206;48.012;10.030;2023-09-19T07:15:37;94794.47;;;21.39
31528;BMP280;10206;48.012;10.030;2023-09-19T07:18:07;94797.28;;;21.41
31528;BMP280;10206;48.012;10.030;2023-09-19T07:20:37;94809.44;;;20.91
31528;BMP280;10206;48.012;10.030;2023-09-19T07:23:04;94803.66;;;20.68
31528;BMP280;10206;48.012;10.030;2023-09-19T07:25:30;94808.59;;;20.89
31528;BMP280;10206;48.012;10.030;2023-09-19T07:27:57;94805.56;;;21.20
31528;BMP280;10206;48.012;10.030;2023-09-19T07:30:26;94809.38;;;20.72
31528;BMP280;10206;48.012;10.030;2023-09-19T07:32:52;94825.53;;;20.97
31528;BMP280;10206;48.012;10.030;2023-09-19T07:35:19;94833.22;;;21.18
31528;BMP280;10206;48.012;10.030;2023-09-19T07:37:48;94830.91;;;21.71
31528;BMP280;10206;48.012;10.030;2023-09-19T07:40:16;94821.84;;;21.90
31528;BMP280;10206;48.012;10.030;2023-09-19T07:42:42;94833.94;;;21.79
31528;BMP280;10206;48.012;10.030;2023-09-19T07:45:10;94834.44;;;21.93
31528;BMP280;10206;48.012;10.030;2023-09-19T07:47:46;94837.94;;;22.84
31528;BMP280;10206;48.012;10.030;2023-09-19T07:50:14;94833.88;;;22.42
31528;BMP280;10206;48.012;10.030;2023-09-19T07:52:42;94836.06;;;22.69
31528;BMP280;10206;48.012;10.030;2023-09-19T07:55:09;94825.38;;;22.36
31528;BMP280;10206;48.012;10.030;2023-09-19T07:57:35;94836.13;;;22.47
31528;BMP280;10206;48.012;10.030;2023-09-19T08:00:04;94832.88;;;23.04
31528;BMP280;10206;48.012;10.030;2023-09-19T08:02:37;94829.38;;;22.78
31528;BMP280;10206;48.012;10.030;2023-09-19T08:05:06;94823.63;;;22.72
31528;BMP280;10206;48.012;10.030;2023-09-19T08:07:40;94828.69;;;22.78
31528;BMP280;10206;48.012;10.030;2023-09-19T08:10:07;94839.69;;;22.97
31528;BMP280;10206;48.012;10.030;2023-09-19T08:12:34;94829.13;;;22.46
31528;BMP280;10206;48.012;10.030;2023-09-19T08:15:02;94836.41;;;23.05
31528;BMP280;10206;48.012;10.030;2023-09-19T08:17:33;94839.41;;;23.38
31528;BMP280;10206;48.012;10.030;2023-09-19T08:19:59;94840.72;;;23.10
31528;BMP280;10206;48.012;10.030;2023-09-19T08:22:26;94847.38;;;22.51
31528;BMP280;10206;48.012;10.030;2023-09-19T08:24:53;94847.91;;;22.70
31528;BMP280;10206;48.012;10.030;2023-09-19T08:27:19;94853.59;;;22.97
31528;BMP280;10206;48.012;10.030;2023-09-19T08:29:45;94858.16;;;22.39
31528;BMP280;10206;48.012;10.030;2023-09-19T08:32:12;94861.72;;;23.15
31528;BMP280;10206;48.012;10.030;2023-09-19T08:34:38;94860.69;;;23.02
31528;BMP280;10206;48.012;10.030;2023-09-19T08:37:04;94871.44;;;23.14
31528;BMP280;10206;48.012;10.030;2023-09-19T08:39:32;94865.53;;;23.25
31528;BMP280;10206;48.012;10.030;2023-09-19T08:42:00;94866.09;;;22.96
31528;BMP280;10206;48.012;10.030;2023-09-19T08:44:27;94874.59;;;23.02
31528;BMP280;10206;48.012;10.030;2023-09-19T08:47:11;94870.34;;;22.76
31528;BMP280;10206;48.012;10.030;2023-09-19T08:50:03;94871.09;;;23.51
31528;BMP280;10206;48.012;10.030;2023-09-19T08:52:41;94873.72;;;22.96
31528;BMP280;10206;48.012;10.030;2023-09-19T08:55:10;94870.91;;;23.19
31528;BMP280;10206;48.012;10.030;2023-09-19T08:57:37;94872.94;;;22.70
31528;BMP280;10206;48.012;10.030;2023-09-19T09:00:08;94867.34;;;23.17
31528;BMP280;10206;48.012;10.030;2023-09-19T09:02:38;94868.66;;;23.65
31528;BMP280;10206;48.012;10.030;2023-09-19T09:05:08;94863.88;;;23.42
31528;BMP280;10206;48.012;10.030;2023-09-19T09:07:36;94869.94;;;23.62
31528;BMP280;10206;48.012;10.030;2023-09-19T09:10:03;94875.09;;;23.46
31528;BMP280;10206;48.012;10.030;2023-09-19T09:12:30;94873.03;;;23.46
31528;BMP280;10206;48.012;10.030;2023-09-19T09:14:56;94866.94;;;24.07
31528;BMP280;10206;48.012;10.030;2023-09-19T09:17:26;94861.16;;;23.99
31528;BMP280;10206;48.012;10.030;2023-09-19T09:19:53;94873.63;;;23.96
31528;BMP280;10206;48.012;10.030;2023-09-19T09:22:19;94873.41;;;23.88
31528;BMP280;10206;48.012;10.030;2023-09-19T09:24:56;94872.69;;;24.15
31528;BMP280;10206;48.012;10.030;2023-09-19T09:27:31;94872.81;;;24.51
31528;BMP280;10206;48.012;10.030;2023-09-19T09:29:58;94863.72;;;24.82
31528;BMP280;10206;48.012;10.030;2023-09-19T09:32:26;94880.81;;;25.32
31528;BMP280;10206;48.012;10.030;2023-09-19T09:35:01;94881.50;;;24.98
31528;BMP280;10206;48.012;10.030;2023-09-19T09:37:28;94884.50;;;25.08
31528;BMP280;10206;48.012;10.030;2023-09-19T09:39:58;94871.59;;;23.99
31528;BMP280;10206;48.012;10.030;2023-09-19T09:42:35;94885.19;;;24.42
31528;BMP280;10206;48.012;10.030;2023-09-19T09:45:21;94883.69;;;24.39
31528;BMP280;10206;48.012;10.030;2023-09-19T09:47:55;94882.56;;;24.20
31528;BMP280;10206;48.012;10.030;2023-09-19T09:52:55;94884.41;;;23.82
31528;BMP280;10206;48.012;10.030;2023-09-19T09:55:59;94877.66;;;23.36
31528;BMP280;10206;48.012;10.030;2023-09-19T09:58:26;94882.00;;;23.96
31528;BMP280;10206;48.012;10.030;2023-09-19T10:00:58;94881.88;;;23.92
31528;BMP280;10206;48.012;10.030;2023-09-19T10:03:38;94880.25;;;24.40
31528;BMP280;10206;48.012;10.030;2023-09-19T10:06:14;94875.78;;;24.59
31528;BMP280;10206;48.012;10.030;2023-09-19T10:09:09;94875.03;;;23.97
31528;BMP280;10206;48.012;10.030;2023-09-19T10:12:08;94879.31;;;24.61
31528;BMP280;10206;48.012;10.030;2023-09-19T10:14:38;94880.75;;;24.62
31528;BMP280;10206;48.012;10.030;2023-09-19T10:17:05;94874.09;;;24.77
31528;BMP280;10206;48.012;10.030;2023-09-19T10:19:45;94880.81;;;25.32
31528;BMP280;10206;48.012;10.030;2023-09-19T10:22:15;94876.38;;;25.21
31528;BMP280;10206;48.012;10.030;2023-09-19T10:24:48;94878.69;;;25.70
31528;BMP280;10206;48.012;10.030;2023-09-19T10:27:18;94874.16;;;24.79
31528;BMP280;10206;48.012;10.030;2023-09-19T10:29:46;94875.50;;;25.12
31528;BMP280;10206;48.012;10.030;2023-09-19T10:32:16;94874.75;;;24.74
31528;BMP280;10206;48.012;10.030;2023-09-19T10:34:47;94864.25;;;24.74
31528;BMP280;10206;48.012;10.030;2023-09-19T10:37:16;94867.03;;;24.74
31528;BMP280;10206;48.012;10.030;2023-09-19T10:39:46;94867.88;;;24.18
31528;BMP280;10206;48.012;10.030;2023-09-19T10:42:18;94889.13;;;24.62
31528;BMP280;10206;48.012;10.030;2023-09-19T10:44:50;94881.75;;;25.46
31528;BMP280;10206;48.012;10.030;2023-09-19T10:47:19;94882.06;;;25.25
31528;BMP280;10206;48.012;10.030;2023-09-19T10:49:46;94874.53;;;25.33
31528;BMP280;10206;48.012;10.030;2023-09-19T10:52:19;94887.66;;;26.04
31528;BMP280;10206;48.012;10.030;2023-09-19T10:54:50;94878.66;;;26.09
31528;BMP280;10206;48.012;10.030;2023-09-19T10:57:24;94875.91;;;25.72
31528;BMP280;10206;48.012;10.030;2023-09-19T11:00:07;94878.84;;;26.71
31528;BMP280;10206;48.012;10.030;2023-09-19T11:05:41;94870.03;;;25.95
31528;BMP280;10206;48.012;10.030;2023-09-19T11:08:11;94874.38;;;25.63
31528;BMP280;10206;48.012;10.030;2023-09-19T11:10:48;94854.34;;;25.37
31528;BMP280;10206;48.012;10.030;2023-09-19T11:13:31;94873.13;;;26.13
31528;BMP280;10206;48.012;10.030;2023-09-19T11:24:28;94862.03;;;26.69
31528;BMP280;10206;48.012;10.030;2023-09-19T11:27:13;94864.69;;;26.59
31528;BMP280;10206;48.012;10.030;2023-09-19T11:29:40;94860.03;;;26.26
31528;BMP280;10206;48.012;10.030;2023-09-19T11:32:06;94869.34;;;26.40
31528;BMP280;10206;48.012;10.030;2023-09-19T11:34:40;94868.31;;;26.68
31528;BMP280;10206;48.012;10.030;2023-09-19T11:40:26;94872.19;;;27.00
31528;BMP280;10206;48.012;10.030;2023-09-19T11:42:43;94868.41;;;26.76
31528;BMP280;10206;48.012;10.030;2023-09-19T11:48:24;94866.06;;;26.58
31528;BMP280;10206;48.012;10.030;2023-09-19T11:50:53;94871.03;;;26.62
31528;BMP280;10206;48.012;10.030;2023-09-19T11:53:21;94865.25;;;26.49
31528;BMP280;10206;48.012;10.030;2023-09-19T11:55:49;94863.28;;;26.58
31528;BMP280;10206;48.012;10.030;2023-09-19T11:58:16;94870.81;;;26.00
31528;BMP280;10206;48.012;10.030;2023-09-19T12:00:45;94866.66;;;26.48
31528;BMP280;10206;48.012;10.030;2023-09-19T12:03:12;94873.06;;;26.59
31528;BMP280;10206;48.012;10.030;2023-09-19T12:05:40;94864.38;;;25.91
31528;BMP280;10206;48.012;10.030;2023-09-19T12:08:09;94849.16;;;25.21
31528;BMP280;10206;48.012;10.030;2023-09-19T12:10:48;94869.31;;;25.55
31528;BMP280;10206;48.012;10.030;2023-09-19T12:13:18;94862.50;;;26.04
31528;BMP280;10206;48.012;10.030;2023-09-19T12:15:45;94874.47;;;26.58
31528;BMP280;10206;48.012;10.030;2023-09-19T12:18:27;94846.03;;;25.41
31528;BMP280;10206;48.012;10.030;2023-09-19T12:20:54;94865.72;;;25.88
31528;BMP280;10206;48.012;10.030;2023-09-19T12:23:20;94869.41;;;26.46
31528;BMP280;10206;48.012;10.030;2023-09-19T12:25:47;94856.78;;;25.96
31528;BMP280;10206;48.012;10.030;2023-09-19T12:28:14;94858.25;;;26.48
31528;BMP280;10206;48.012;10.030;2023-09-19T12:30:42;94858.28;;;26.52
31528;BMP280;10206;48.012;10.030;2023-09-19T12:33:19;94864.53;;;26.47
31528;BMP280;10206;48.012;10.030;2023-09-19T12:35:46;94848.13;;;26.77
31528;BMP280;10206;48.012;10.030;2023-09-19T12:38:26;94848.22;;;26.85
31528;BMP280;10206;48.012;10.030;2023-09-19T12:40:57;94855.22;;;26.84
31528;BMP280;10206;48.012;10.030;2023-09-19T12:43:30;94853.03;;;26.27
31528;BMP280;10206;48.012;10.030;2023-09-19T12:45:58;94854.00;;;25.98
31528;BMP280;10206;48.012;10.030;2023-09-19T12:48:26;94845.91;;;26.68
31528;BMP280;10206;48.012;10.030;2023-09-19T12:51:10;94855.31;;;26.92
31528;BMP280;10206;48.012;10.030;2023-09-19T12:53:42;94851.44;;;26.62
31528;BMP280;10206;48.012;10.030;2023-09-19T12:56:13;94852.16;;;26.62
31528;BMP280;10206;48.012;10.030;2023-09-19T12:58:52;94842.41;;;26.67
31528;BMP280;10206;48.012;10.030;2023-09-19T13:01:22;94846.19;;;25.90
31528;BMP280;10206;48.012;10.030;2023-09-19T13:04:17;94846.19;;;25.90
31528;BMP280;10206;48.012;10.030;2023-09-19T13:06:49;94832.88;;;25.89
31528;BMP280;10206;48.012;10.030;2023-09-19T13:09:16;94833.59;;;25.91
31528;BMP280;10206;48.012;10.030;2023-09-19T13:11:44;94816.41;;;25.63
31528;BMP280;10206;48.012;10.030;2023-09-19T13:17:05;94819.84;;;25.62
31528;BMP280;10206;48.012;10.030;2023-09-19T13:19:48;94820.53;;;25.23
31528;BMP280;10206;48.012;10.030;2023-09-19T13:22:43;94820.53;;;25.23
31528;BMP280;10206;48.012;10.030;2023-09-19T13:25:21;94824.16;;;25.29
31528;BMP280;10206;48.012;10.030;2023-09-19T13:27:54;94810.78;;;24.86
31528;BMP280;10206;48.012;10.030;2023-09-19T13:30:26;94814.84;;;25.17
31528;BMP280;10206;48.012;10.030;2023-09-19T13:33:08;94813.53;;;25.59
31528;BMP280;10206;48.012;10.030;2023-09-19T13:35:36;94806.66;;;25.27
31528;BMP280;10206;48.012;10.030;2023-09-19T13:38:04;94810.69;;;25.18
31528;BMP280;10206;48.012;10.030;2023-09-19T13:40:30;94801.75;;;25.25
31528;BMP280;10206;48.012;10.030;2023-09-19T13:43:01;94792.41;;;25.10
31528;BMP280;10206;48.012;10.030;2023-09-19T13:45:27;94796.22;;;24.91
31528;BMP280;10206;48.012;10.030;2023-09-19T13:47:56;94797.91;;;24.71
31528;BMP280;10206;48.012;10.030;2023-09-19T13:50:22;94802.34;;;25.20
31528;BMP280;10206;48.012;10.030;2023-09-19T13:52:55;94795.69;;;25.37
31528;BMP280;10206;48.012;10.030;2023-09-19T13:55:21;94799.66;;;25.26
31528;BMP280;10206;48.012;10.030;2023-09-19T13:57:50;94793.59;;;25.39
31528;BMP280;10206;48.012;10.030;2023-09-19T14:00:18;94796.31;;;25.35
31528;BMP280;10206;48.012;10.030;2023-09-19T14:02:45;94800.38;;;25.26
31528;BMP280;10206;48.012;10.030;2023-09-19T14:05:12;94790.56;;;25.65
31528;BMP280;10206;48.012;10.030;2023-09-19T14:07:42;94793.94;;;25.57
31528;BMP280;10206;48.012;10.030;2023-09-19T14:10:10;94787.94;;;25.33
31528;BMP280;10206;48.012;10.030;2023-09-19T14:12:37;94789.75;;;25.58
31528;BMP280;10206;48.012;10.030;2023-09-19T14:15:04;94788.28;;;25.53
31528;BMP280;10206;48.012;10.030;2023-09-19T14:17:31;94782.53;;;25.45
31528;BMP280;10206;48.012;10.030;2023-09-19T14:19:57;94785.41;;;25.47
31528;BMP280;10206;48.012;10.030;2023-09-19T14:22:23;94784.81;;;25.15
31528;BMP280;10206;48.012;10.030;2023-09-19T14:24:49;94777.19;;;25.18
31528;BMP280;10206;48.012;10.030;2023-09-19T14:27:15;94778.03;;;24.88
31528;BMP280;10206;48.012;10.030;2023-09-19T14:29:42;94779.38;;;24.85
31528;BMP280;10206;48.012;10.030;2023-09-19T14:32:08;94779.81;;;25.09
31528;BMP280;10206;48.012;10.030;2023-09-19T14:34:34;94778.09;;;25.30
31528;BMP280;10206;48.012;10.030;2023-09-19T14:37:02;94770.22;;;24.81
31528;BMP280;10206;48.012;10.030;2023-09-19T14:39:29;94769.63;;;24.86